Terminal Aerodrome Forecast
Issued by NWS Albuquerque, NM

Home | Current Version | Previous Version | Text Only | Print | Product List | Glossary On
Versions: 1 2 3 4 5 6 7 8 9 10 11 12 13 14 15 16 17
000
FTUS45 KABQ 172100 AAA
TAFABQ
TAF AMD
KABQ 172125Z 1721/1818 17004KT P6SM VCSH SCT040 OVC100
      TEMPO 1722/1802 5SM -RA OVC025
     FM180300 29006KT P6SM OVC050=

USA.gov is the U.S. government's official web portal to all federal, state and local government web resources and services.